sensor_id;sensor_type;location;lat;lon;timestamp;temperature;humidity
44643;DHT22;33930;-34.276;150.954;2022-12-07T00:01:31;37.10;71.20
44643;DHT22;33930;-34.276;150.954;2022-12-07T00:04:01;36.80;67.70
44643;DHT22;33930;-34.276;150.954;2022-12-07T00:06:32;35.70;70.00
44643;DHT22;33930;-34.276;150.954;2022-12-07T00:09:00;34.60;73.30
44643;DHT22;33930;-34.276;150.954;2022-12-07T00:11:28;33.90;70.90
44643;DHT22;33930;-34.276;150.954;2022-12-07T00:14:00;33.10;74.20
44643;DHT22;33930;-34.276;150.954;2022-12-07T00:16:30;32.60;74.60
44643;DHT22;33930;-34.276;150.954;2022-12-07T00:18:58;32.40;74.50
44643;DHT22;33930;-34.276;150.954;2022-12-07T00:21:27;32.00;73.30
44643;DHT22;33930;-34.276;150.954;2022-12-07T00:23:56;31.60;73.10
44643;DHT22;33930;-34.276;150.954;2022-12-07T00:26:31;31.20;75.40
44643;DHT22;33930;-34.276;150.954;2022-12-07T00:29:02;30.90;75.20
44643;DHT22;33930;-34.276;150.954;2022-12-07T00:31:33;30.60;75.70
44643;DHT22;33930;-34.276;150.954;2022-12-07T00:34:01;30.50;74.50
44643;DHT22;33930;-34.276;150.954;2022-12-07T00:36:28;30.50;76.90
44643;DHT22;33930;-34.276;150.954;2022-12-07T00:39:00;30.50;75.70
44643;DHT22;33930;-34.276;150.954;2022-12-07T00:41:32;30.40;76.90
44643;DHT22;33930;-34.276;150.954;2022-12-07T00:43:59;30.30;73.70
44643;DHT22;33930;-34.276;150.954;2022-12-07T00:46:27;30.00;74.30
44643;DHT22;33930;-34.276;150.954;2022-12-07T00:48:55;29.90;77.20
44643;DHT22;33930;-34.276;150.954;2022-12-07T00:51:24;29.80;76.30
44643;DHT22;33930;-34.276;150.954;2022-12-07T00:53:52;29.90;76.90
44643;DHT22;33930;-34.276;150.954;2022-12-07T00:56:22;30.00;77.40
44643;DHT22;33930;-34.276;150.954;2022-12-07T00:59:01;30.10;75.90
44643;DHT22;33930;-34.276;150.954;2022-12-07T01:01:34;29.90;76.40
44643;DHT22;33930;-34.276;150.954;2022-12-07T01:04:02;29.60;75.40
44643;DHT22;33930;-34.276;150.954;2022-12-07T01:06:30;29.30;76.00
44643;DHT22;33930;-34.276;150.954;2022-12-07T01:08:58;29.30;79.70
44643;DHT22;33930;-34.276;150.954;2022-12-07T01:11:29;29.10;75.60
44643;DHT22;33930;-34.276;150.954;2022-12-07T01:13:58;28.90;76.50
44643;DHT22;33930;-34.276;150.954;2022-12-07T01:16:29;28.90;77.10
44643;DHT22;33930;-34.276;150.954;2022-12-07T01:18:59;28.60;75.90
44643;DHT22;33930;-34.276;150.954;2022-12-07T01:21:29;28.60;76.70
44643;DHT22;33930;-34.276;150.954;2022-12-07T01:23:59;28.60;77.10
44643;DHT22;33930;-34.276;150.954;2022-12-07T01:26:27;28.50;77.90
44643;DHT22;33930;-34.276;150.954;2022-12-07T01:28:54;28.80;75.30
44643;DHT22;33930;-34.276;150.954;2022-12-07T01:31:23;29.00;75.20
44643;DHT22;33930;-34.276;150.954;2022-12-07T01:33:53;28.80;76.30
44643;DHT22;33930;-34.276;150.954;2022-12-07T01:36:27;28.60;76.20
44643;DHT22;33930;-34.276;150.954;2022-12-07T01:39:00;28.40;76.60
44643;DHT22;33930;-34.276;150.954;2022-12-07T01:41:28;28.30;75.20
44643;DHT22;33930;-34.276;150.954;2022-12-07T01:44:23;28.00;76.00
44643;DHT22;33930;-34.276;150.954;2022-12-07T01:46:58;27.90;76.90
44643;DHT22;33930;-34.276;150.954;2022-12-07T01:52:16;27.60;76.10
44643;DHT22;33930;-34.276;150.954;2022-12-07T01:54:46;27.60;78.40
44643;DHT22;33930;-34.276;150.954;2022-12-07T01:57:15;27.70;77.90
44643;DHT22;33930;-34.276;150.954;2022-12-07T01:59:44;27.80;78.60
44643;DHT22;33930;-34.276;150.954;2022-12-07T02:02:29;27.70;78.20
44643;DHT22;33930;-34.276;150.954;2022-12-07T02:05:00;27.70;78.40
44643;DHT22;33930;-34.276;150.954;2022-12-07T02:07:28;27.80;78.00
44643;DHT22;33930;-34.276;150.954;2022-12-07T02:09:56;27.80;79.80
44643;DHT22;33930;-34.276;150.954;2022-12-07T02:12:24;27.80;77.20
44643;DHT22;33930;-34.276;150.954;2022-12-07T02:14:52;27.80;78.40
44643;DHT22;33930;-34.276;150.954;2022-12-07T02:20:30;27.90;77.10
44643;DHT22;33930;-34.276;150.954;2022-12-07T02:28:36;28.00;77.40
44643;DHT22;33930;-34.276;150.954;2022-12-07T02:31:19;28.20;79.50
44643;DHT22;33930;-34.276;150.954;2022-12-07T02:33:54;28.20;77.70
44643;DHT22;33930;-34.276;150.954;2022-12-07T02:36:27;28.30;77.40
44643;DHT22;33930;-34.276;150.954;2022-12-07T02:38:58;28.40;79.30
44643;DHT22;33930;-34.276;150.954;2022-12-07T02:41:32;28.50;78.50
44643;DHT22;33930;-34.276;150.954;2022-12-07T02:44:21;28.50;79.10
44643;DHT22;33930;-34.276;150.954;2022-12-07T02:47:12;28.40;77.80
44643;DHT22;33930;-34.276;150.954;2022-12-07T02:49:41;28.30;78.20
44643;DHT22;33930;-34.276;150.954;2022-12-07T02:52:09;28.10;73.60
44643;DHT22;33930;-34.276;150.954;2022-12-07T02:54:36;28.00;76.80
44643;DHT22;33930;-34.276;150.954;2022-12-07T02:57:46;27.90;79.00
44643;DHT22;33930;-34.276;150.954;2022-12-07T03:00:19;27.90;78.50
44643;DHT22;33930;-34.276;150.954;2022-12-07T03:03:10;27.90;76.80
44643;DHT22;33930;-34.276;150.954;2022-12-07T03:05:52;28.00;76.60
44643;DHT22;33930;-34.276;150.954;2022-12-07T03:12:43;28.10;75.20
44643;DHT22;33930;-34.276;150.954;2022-12-07T03:15:05;28.10;76.90
44643;DHT22;33930;-34.276;150.954;2022-12-07T03:17:36;27.90;76.40
44643;DHT22;33930;-34.276;150.954;2022-12-07T03:20:05;27.70;77.20
44643;DHT22;33930;-34.276;150.954;2022-12-07T03:22:36;27.70;78.50
44643;DHT22;33930;-34.276;150.954;2022-12-07T03:25:09;27.70;75.50
44643;DHT22;33930;-34.276;150.954;2022-12-07T03:27:53;27.60;75.10
44643;DHT22;33930;-34.276;150.954;2022-12-07T03:33:07;27.60;74.70
44643;DHT22;33930;-34.276;150.954;2022-12-07T03:35:42;27.60;75.90
44643;DHT22;33930;-34.276;150.954;2022-12-07T03:38:31;27.70;74.70
44643;DHT22;33930;-34.276;150.954;2022-12-07T03:41:14;27.60;75.80
44643;DHT22;33930;-34.276;150.954;2022-12-07T03:43:43;27.60;75.40
44643;DHT22;33930;-34.276;150.954;2022-12-07T03:46:29;27.60;75.30
44643;DHT22;33930;-34.276;150.954;2022-12-07T03:49:11;27.80;76.00
44643;DHT22;33930;-34.276;150.954;2022-12-07T03:54:20;27.90;77.70
44643;DHT22;33930;-34.276;150.954;2022-12-07T03:56:49;27.80;75.70
44643;DHT22;33930;-34.276;150.954;2022-12-07T03:59:20;27.70;76.30
44643;DHT22;33930;-34.276;150.954;2022-12-07T04:01:59;27.40;74.40
44643;DHT22;33930;-34.276;150.954;2022-12-07T04:04:28;27.40;75.20
44643;DHT22;33930;-34.276;150.954;2022-12-07T04:06:56;27.30;73.80
44643;DHT22;33930;-34.276;150.954;2022-12-07T04:09:23;27.40;75.60
44643;DHT22;33930;-34.276;150.954;2022-12-07T04:11:50;27.40;79.70
44643;DHT22;33930;-34.276;150.954;2022-12-07T04:14:18;27.60;84.60
44643;DHT22;33930;-34.276;150.954;2022-12-07T04:16:53;27.50;78.60
44643;DHT22;33930;-34.276;150.954;2022-12-07T04:19:28;27.40;80.60
44643;DHT22;33930;-34.276;150.954;2022-12-07T04:21:56;27.30;83.80
44643;DHT22;33930;-34.276;150.954;2022-12-07T04:24:24;27.20;79.90
44643;DHT22;33930;-34.276;150.954;2022-12-07T04:26:52;27.30;80.90
44643;DHT22;33930;-34.276;150.954;2022-12-07T04:29:19;27.30;80.20
44643;DHT22;33930;-34.276;150.954;2022-12-07T04:31:47;27.30;75.80
44643;DHT22;33930;-34.276;150.954;2022-12-07T04:34:15;27.30;81.30
44643;DHT22;33930;-34.276;150.954;2022-12-07T04:36:43;27.20;83.30
44643;DHT22;33930;-34.276;150.954;2022-12-07T04:39:25;27.20;84.70
44643;DHT22;33930;-34.276;150.954;2022-12-07T04:41:53;27.10;84.80
44643;DHT22;33930;-34.276;150.954;2022-12-07T04:44:22;27.20;87.60
44643;DHT22;33930;-34.276;150.954;2022-12-07T04:46:50;27.20;90.60
44643;DHT22;33930;-34.276;150.954;2022-12-07T04:49:18;27.30;91.30
44643;DHT22;33930;-34.276;150.954;2022-12-07T04:51:46;27.30;87.90
44643;DHT22;33930;-34.276;150.954;2022-12-07T04:54:14;27.30;90.90
44643;DHT22;33930;-34.276;150.954;2022-12-07T04:56:42;27.30;91.90
44643;DHT22;33930;-34.276;150.954;2022-12-07T04:59:11;27.20;93.10
44643;DHT22;33930;-34.276;150.954;2022-12-07T05:01:39;27.10;93.90
44643;DHT22;33930;-34.276;150.954;2022-12-07T05:04:07;27.10;94.00
44643;DHT22;33930;-34.276;150.954;2022-12-07T05:06:34;27.10;92.80
44643;DHT22;33930;-34.276;150.954;2022-12-07T05:09:02;27.10;93.10
44643;DHT22;33930;-34.276;150.954;2022-12-07T05:11:30;27.10;91.90
44643;DHT22;33930;-34.276;150.954;2022-12-07T05:14:13;27.20;91.70
44643;DHT22;33930;-34.276;150.954;2022-12-07T05:16:41;27.20;92.60
44643;DHT22;33930;-34.276;150.954;2022-12-07T05:19:10;27.20;92.70
44643;DHT22;33930;-34.276;150.954;2022-12-07T05:21:38;27.20;92.50
44643;DHT22;33930;-34.276;150.954;2022-12-07T05:24:06;26.90;90.10
44643;DHT22;33930;-34.276;150.954;2022-12-07T05:26:34;26.60;94.50
44643;DHT22;33930;-34.276;150.954;2022-12-07T05:29:02;26.60;94.30
44643;DHT22;33930;-34.276;150.954;2022-12-07T05:31:30;26.60;95.20
44643;DHT22;33930;-34.276;150.954;2022-12-07T05:33:57;26.70;92.30
44643;DHT22;33930;-34.276;150.954;2022-12-07T05:36:25;26.70;92.20
44643;DHT22;33930;-34.276;150.954;2022-12-07T05:38:55;26.50;91.30
44643;DHT22;33930;-34.276;150.954;2022-12-07T05:41:22;26.50;93.70
44643;DHT22;33930;-34.276;150.954;2022-12-07T05:44:09;26.50;95.30
44643;DHT22;33930;-34.276;150.954;2022-12-07T05:46:37;26.40;94.40
44643;DHT22;33930;-34.276;150.954;2022-12-07T05:49:04;26.50;94.30
44643;DHT22;33930;-34.276;150.954;2022-12-07T05:51:31;26.30;91.30
44643;DHT22;33930;-34.276;150.954;2022-12-07T05:53:59;26.10;94.80
44643;DHT22;33930;-34.276;150.954;2022-12-07T05:56:26;25.90;95.40
44643;DHT22;33930;-34.276;150.954;2022-12-07T05:58:53;25.80;92.50
44643;DHT22;33930;-34.276;150.954;2022-12-07T06:01:39;25.70;90.90
44643;DHT22;33930;-34.276;150.954;2022-12-07T06:04:07;25.70;92.20
44643;DHT22;33930;-34.276;150.954;2022-12-07T06:06:34;25.50;94.40
44643;DHT22;33930;-34.276;150.954;2022-12-07T06:09:02;25.50;94.60
44643;DHT22;33930;-34.276;150.954;2022-12-07T06:11:29;25.40;94.90
44643;DHT22;33930;-34.276;150.954;2022-12-07T06:14:14;25.30;94.80
44643;DHT22;33930;-34.276;150.954;2022-12-07T06:16:41;25.20;95.30
44643;DHT22;33930;-34.276;150.954;2022-12-07T06:19:09;25.10;96.00
44643;DHT22;33930;-34.276;150.954;2022-12-07T06:21:36;25.10;95.40
44643;DHT22;33930;-34.276;150.954;2022-12-07T06:24:04;24.90;95.30
44643;DHT22;33930;-34.276;150.954;2022-12-07T06:26:31;24.70;95.10
44643;DHT22;33930;-34.276;150.954;2022-12-07T06:28:58;24.70;94.60
44643;DHT22;33930;-34.276;150.954;2022-12-07T06:31:26;24.50;93.90
44643;DHT22;33930;-34.276;150.954;2022-12-07T06:33:58;24.50;93.80
44643;DHT22;33930;-34.276;150.954;2022-12-07T06:36:25;24.40;94.60
44643;DHT22;33930;-34.276;150.954;2022-12-07T06:38:53;24.40;94.80
44643;DHT22;33930;-34.276;150.954;2022-12-07T06:41:20;24.50;95.40
44643;DHT22;33930;-34.276;150.954;2022-12-07T06:43:48;24.50;94.90
44643;DHT22;33930;-34.276;150.954;2022-12-07T06:46:16;24.30;94.90
44643;DHT22;33930;-34.276;150.954;2022-12-07T06:48:44;24.30;94.80
44643;DHT22;33930;-34.276;150.954;2022-12-07T06:51:11;24.30;94.80
44643;DHT22;33930;-34.276;150.954;2022-12-07T06:53:38;24.20;94.60
44643;DHT22;33930;-34.276;150.954;2022-12-07T06:56:06;24.20;93.70
44643;DHT22;33930;-34.276;150.954;2022-12-07T06:58:33;24.00;92.40
44643;DHT22;33930;-34.276;150.954;2022-12-07T07:01:01;23.80;88.20
44643;DHT22;33930;-34.276;150.954;2022-12-07T07:03:28;23.80;85.10
44643;DHT22;33930;-34.276;150.954;2022-12-07T07:05:55;23.80;85.10
44643;DHT22;33930;-34.276;150.954;2022-12-07T07:08:23;23.90;83.70
44643;DHT22;33930;-34.276;150.954;2022-12-07T07:10:50;24.00;85.80
44643;DHT22;33930;-34.276;150.954;2022-12-07T07:13:17;24.10;85.50
44643;DHT22;33930;-34.276;150.954;2022-12-07T07:15:45;24.00;83.90
44643;DHT22;33930;-34.276;150.954;2022-12-07T07:18:12;24.10;85.70
44643;DHT22;33930;-34.276;150.954;2022-12-07T07:20:40;24.10;89.40
44643;DHT22;33930;-34.276;150.954;2022-12-07T07:23:07;24.00;90.90
44643;DHT22;33930;-34.276;150.954;2022-12-07T07:25:34;24.00;91.60
44643;DHT22;33930;-34.276;150.954;2022-12-07T07:28:02;23.90;92.40
44643;DHT22;33930;-34.276;150.954;2022-12-07T07:30:29;23.70;93.30
44643;DHT22;33930;-34.276;150.954;2022-12-07T07:33:03;23.70;93.60
44643;DHT22;33930;-34.276;150.954;2022-12-07T07:35:32;23.60;93.70
44643;DHT22;33930;-34.276;150.954;2022-12-07T07:38:00;23.50;93.70
44643;DHT22;33930;-34.276;150.954;2022-12-07T07:40:28;23.50;93.70
44643;DHT22;33930;-34.276;150.954;2022-12-07T07:42:56;23.40;92.40
44643;DHT22;33930;-34.276;150.954;2022-12-07T07:45:25;23.30;91.10
44643;DHT22;33930;-34.276;150.954;2022-12-07T07:47:53;23.30;87.80
44643;DHT22;33930;-34.276;150.954;2022-12-07T07:50:21;23.30;89.70
44643;DHT22;33930;-34.276;150.954;2022-12-07T07:52:49;23.40;84.20
44643;DHT22;33930;-34.276;150.954;2022-12-07T07:55:16;23.50;84.30
44643;DHT22;33930;-34.276;150.954;2022-12-07T07:57:44;23.40;83.40
44643;DHT22;33930;-34.276;150.954;2022-12-07T08:00:14;23.50;82.00
44643;DHT22;33930;-34.276;150.954;2022-12-07T08:02:42;23.50;82.20
44643;DHT22;33930;-34.276;150.954;2022-12-07T08:05:11;23.50;82.20
44643;DHT22;33930;-34.276;150.954;2022-12-07T08:07:39;23.50;82.60
44643;DHT22;33930;-34.276;150.954;2022-12-07T08:10:07;23.50;82.70
44643;DHT22;33930;-34.276;150.954;2022-12-07T08:12:40;23.40;83.50
44643;DHT22;33930;-34.276;150.954;2022-12-07T08:15:29;23.40;87.50
44643;DHT22;33930;-34.276;150.954;2022-12-07T08:17:57;23.30;89.20
44643;DHT22;33930;-34.276;150.954;2022-12-07T08:20:24;23.30;87.30
44643;DHT22;33930;-34.276;150.954;2022-12-07T08:22:52;23.20;84.60
44643;DHT22;33930;-34.276;150.954;2022-12-07T08:25:20;23.10;84.20
44643;DHT22;33930;-34.276;150.954;2022-12-07T08:27:49;23.30;83.50
44643;DHT22;33930;-34.276;150.954;2022-12-07T08:30:16;23.20;83.80
44643;DHT22;33930;-34.276;150.954;2022-12-07T08:32:47;23.20;85.40
44643;DHT22;33930;-34.276;150.954;2022-12-07T08:35:15;23.20;84.90
44643;DHT22;33930;-34.276;150.954;2022-12-07T08:37:43;23.10;85.00
44643;DHT22;33930;-34.276;150.954;2022-12-07T08:40:12;23.10;84.60
44643;DHT22;33930;-34.276;150.954;2022-12-07T08:42:43;23.00;85.20
44643;DHT22;33930;-34.276;150.954;2022-12-07T08:45:12;23.00;85.30
44643;DHT22;33930;-34.276;150.954;2022-12-07T08:47:50;22.80;85.40
44643;DHT22;33930;-34.276;150.954;2022-12-07T08:50:19;22.80;86.60
44643;DHT22;33930;-34.276;150.954;2022-12-07T08:52:52;22.80;86.90
44643;DHT22;33930;-34.276;150.954;2022-12-07T08:55:21;22.80;88.30
44643;DHT22;33930;-34.276;150.954;2022-12-07T08:57:49;22.70;87.10
44643;DHT22;33930;-34.276;150.954;2022-12-07T09:00:17;22.60;87.70
44643;DHT22;33930;-34.276;150.954;2022-12-07T09:02:45;22.60;87.80
44643;DHT22;33930;-34.276;150.954;2022-12-07T09:05:12;22.60;88.50
44643;DHT22;33930;-34.276;150.954;2022-12-07T09:07:49;22.70;88.30
44643;DHT22;33930;-34.276;150.954;2022-12-07T09:10:18;22.60;89.00
44643;DHT22;33930;-34.276;150.954;2022-12-07T09:12:45;22.60;91.40
44643;DHT22;33930;-34.276;150.954;2022-12-07T09:15:12;22.60;92.00
44643;DHT22;33930;-34.276;150.954;2022-12-07T09:17:40;22.40;93.30
44643;DHT22;33930;-34.276;150.954;2022-12-07T09:20:08;22.30;93.20
44643;DHT22;33930;-34.276;150.954;2022-12-07T09:22:35;22.10;94.30
44643;DHT22;33930;-34.276;150.954;2022-12-07T09:25:04;21.90;94.40
44643;DHT22;33930;-34.276;150.954;2022-12-07T09:27:32;21.70;94.90
44643;DHT22;33930;-34.276;150.954;2022-12-07T09:29:59;21.60;95.00
44643;DHT22;33930;-34.276;150.954;2022-12-07T09:32:27;21.60;95.20
44643;DHT22;33930;-34.276;150.954;2022-12-07T09:34:54;21.60;95.40
44643;DHT22;33930;-34.276;150.954;2022-12-07T09:37:21;21.60;95.60
44643;DHT22;33930;-34.276;150.954;2022-12-07T09:39:49;21.50;95.80
44643;DHT22;33930;-34.276;150.954;2022-12-07T09:42:34;21.40;95.80
44643;DHT22;33930;-34.276;150.954;2022-12-07T09:45:04;21.20;96.30
44643;DHT22;33930;-34.276;150.954;2022-12-07T09:47:33;21.10;96.90
44643;DHT22;33930;-34.276;150.954;2022-12-07T09:50:07;20.90;96.60
44643;DHT22;33930;-34.276;150.954;2022-12-07T09:52:39;20.60;97.40
44643;DHT22;33930;-34.276;150.954;2022-12-07T09:55:12;20.60;98.00
44643;DHT22;33930;-34.276;150.954;2022-12-07T09:57:40;20.60;97.90
44643;DHT22;33930;-34.276;150.954;2022-12-07T10:00:19;20.50;98.20
44643;DHT22;33930;-34.276;150.954;2022-12-07T10:02:59;20.60;98.40
44643;DHT22;33930;-34.276;150.954;2022-12-07T10:07:55;20.90;97.90
44643;DHT22;33930;-34.276;150.954;2022-12-07T10:10:29;20.90;98.60
44643;DHT22;33930;-34.276;150.954;2022-12-07T10:12:59;20.80;98.40
44643;DHT22;33930;-34.276;150.954;2022-12-07T10:20:49;20.60;99.90
44643;DHT22;33930;-34.276;150.954;2022-12-07T10:23:26;20.60;99.90
44643;DHT22;33930;-34.276;150.954;2022-12-07T10:25:53;20.60;99.90
44643;DHT22;33930;-34.276;150.954;2022-12-07T10:28:22;20.60;99.90
44643;DHT22;33930;-34.276;150.954;2022-12-07T10:31:02;20.50;99.90
44643;DHT22;33930;-34.276;150.954;2022-12-07T10:36:17;20.40;99.90
44643;DHT22;33930;-34.276;150.954;2022-12-07T10:38:53;20.40;99.90
44643;DHT22;33930;-34.276;150.954;2022-12-07T10:41:25;20.20;99.90
44643;DHT22;33930;-34.276;150.954;2022-12-07T10:43:55;20.20;99.90
44643;DHT22;33930;-34.276;150.954;2022-12-07T11:01:19;20.10;99.90
44643;DHT22;33930;-34.276;150.954;2022-12-07T11:04:24;20.30;99.90
44643;DHT22;33930;-34.276;150.954;2022-12-07T11:12:31;20.70;99.90
44643;DHT22;33930;-34.276;150.954;2022-12-07T11:15:24;20.80;99.90
44643;DHT22;33930;-34.276;150.954;2022-12-07T11:20:56;20.80;99.90
44643;DHT22;33930;-34.276;150.954;2022-12-07T11:23:49;20.70;99.90
44643;DHT22;33930;-34.276;150.954;2022-12-07T11:27:00;20.70;99.90
44643;DHT22;33930;-34.276;150.954;2022-12-07T11:29:36;20.60;99.90
44643;DHT22;33930;-34.276;150.954;2022-12-07T11:36:09;20.30;99.90
44643;DHT22;33930;-34.276;150.954;2022-12-07T11:38:23;20.10;99.90
44643;DHT22;33930;-34.276;150.954;2022-12-07T11:40:56;20.10;99.90
44643;DHT22;33930;-34.276;150.954;2022-12-07T11:46:18;20.10;99.90
44643;DHT22;33930;-34.276;150.954;2022-12-07T11:51:20;20.00;99.90
44643;DHT22;33930;-34.276;150.954;2022-12-07T11:53:55;20.00;99.90
44643;DHT22;33930;-34.276;150.954;2022-12-07T11:56:26;19.80;99.90
44643;DHT22;33930;-34.276;150.954;2022-12-07T11:59:13;19.80;99.90
44643;DHT22;33930;-34.276;150.954;2022-12-07T12:07:24;19.80;99.90
44643;DHT22;33930;-34.276;150.954;2022-12-07T12:10:04;19.70;99.90
44643;DHT22;33930;-34.276;150.954;2022-12-07T12:12:43;19.70;99.90
44643;DHT22;33930;-34.276;150.954;2022-12-07T12:20:49;19.60;99.90
44643;DHT22;33930;-34.276;150.954;2022-12-07T12:26:03;19.20;99.90
44643;DHT22;33930;-34.276;150.954;2022-12-07T12:33:54;18.80;99.90
44643;DHT22;33930;-34.276;150.954;2022-12-07T12:51:49;19.00;99.90
44643;DHT22;33930;-34.276;150.954;2022-12-07T12:54:31;19.30;99.90
44643;DHT22;33930;-34.276;150.954;2022-12-07T12:57:34;19.50;99.90
44643;DHT22;33930;-34.276;150.954;2022-12-07T13:02:28;19.60;99.90
44643;DHT22;33930;-34.276;150.954;2022-12-07T13:07:49;19.80;99.90
44643;DHT22;33930;-34.276;150.954;2022-12-07T13:20:57;20.00;99.90
44643;DHT22;33930;-34.276;150.954;2022-12-07T13:29:01;20.00;99.90
44643;DHT22;33930;-34.276;150.954;2022-12-07T13:34:39;19.90;99.90
44643;DHT22;33930;-34.276;150.954;2022-12-07T13:37:14;19.80;99.90
44643;DHT22;33930;-34.276;150.954;2022-12-07T13:39:53;19.80;99.90
44643;DHT22;33930;-34.276;150.954;2022-12-07T13:42:32;19.90;99.90
44643;DHT22;33930;-34.276;150.954;2022-12-07T13:45:17;19.80;99.90
44643;DHT22;33930;-34.276;150.954;2022-12-07T13:47:52;19.80;99.90
44643;DHT22;33930;-34.276;150.954;2022-12-07T13:50:27;19.90;99.90
44643;DHT22;33930;-34.276;150.954;2022-12-07T13:53:00;19.80;99.90
44643;DHT22;33930;-34.276;150.954;2022-12-07T13:55:28;19.80;99.90
44643;DHT22;33930;-34.276;150.954;2022-12-07T13:57:56;19.80;99.90
44643;DHT22;33930;-34.276;150.954;2022-12-07T14:00:26;19.80;99.90
44643;DHT22;33930;-34.276;150.954;2022-12-07T14:05:44;19.90;99.90
44643;DHT22;33930;-34.276;150.954;2022-12-07T14:10:54;19.90;99.90
44643;DHT22;33930;-34.276;150.954;2022-12-07T14:18:57;20.00;99.90
44643;DHT22;33930;-34.276;150.954;2022-12-07T14:21:27;20.00;99.90
44643;DHT22;33930;-34.276;150.954;2022-12-07T14:24:18;20.10;99.90
44643;DHT22;33930;-34.276;150.954;2022-12-07T14:26:47;20.20;99.90
44643;DHT22;33930;-34.276;150.954;2022-12-07T14:29:32;20.20;99.90
44643;DHT22;33930;-34.276;150.954;2022-12-07T14:32:35;20.10;99.90
44643;DHT22;33930;-34.276;150.954;2022-12-07T14:35:13;20.10;99.90
44643;DHT22;33930;-34.276;150.954;2022-12-07T14:37:43;20.00;99.90
44643;DHT22;33930;-34.276;150.954;2022-12-07T14:40:19;20.00;99.90
44643;DHT22;33930;-34.276;150.954;2022-12-07T14:42:53;20.00;99.90
44643;DHT22;33930;-34.276;150.954;2022-12-07T14:45:22;20.10;99.90
44643;DHT22;33930;-34.276;150.954;2022-12-07T14:47:50;20.20;99.90
44643;DHT22;33930;-34.276;150.954;2022-12-07T14:50:19;20.10;99.90
44643;DHT22;33930;-34.276;150.954;2022-12-07T14:52:51;20.20;99.90
44643;DHT22;33930;-34.276;150.954;2022-12-07T14:55:25;20.20;99.90
44643;DHT22;33930;-34.276;150.954;2022-12-07T14:57:53;20.20;99.90
44643;DHT22;33930;-34.276;150.954;2022-12-07T15:00:23;20.20;99.90
44643;DHT22;33930;-34.276;150.954;2022-12-07T15:02:51;20.40;99.90
44643;DHT22;33930;-34.276;150.954;2022-12-07T15:05:19;20.40;99.90
44643;DHT22;33930;-34.276;150.954;2022-12-07T15:07:48;20.20;99.90
44643;DHT22;33930;-34.276;150.954;2022-12-07T15:10:27;20.00;99.90
44643;DHT22;33930;-34.276;150.954;2022-12-07T15:12:59;20.10;99.90
44643;DHT22;33930;-34.276;150.954;2022-12-07T15:15:45;20.10;99.90
44643;DHT22;33930;-34.276;150.954;2022-12-07T15:18:13;20.20;99.90
44643;DHT22;33930;-34.276;150.954;2022-12-07T15:20:40;20.30;99.90
44643;DHT22;33930;-34.276;150.954;2022-12-07T15:23:08;20.20;99.90
44643;DHT22;33930;-34.276;150.954;2022-12-07T15:25:35;20.20;99.90
44643;DHT22;33930;-34.276;150.954;2022-12-07T15:28:02;20.10;99.90
44643;DHT22;33930;-34.276;150.954;2022-12-07T15:30:30;20.20;99.90
44643;DHT22;33930;-34.276;150.954;2022-12-07T15:32:57;20.20;99.90
44643;DHT22;33930;-34.276;150.954;2022-12-07T15:35:24;20.20;99.90
44643;DHT22;33930;-34.276;150.954;2022-12-07T15:37:51;20.30;99.90
44643;DHT22;33930;-34.276;150.954;2022-12-07T15:40:19;20.20;99.90
44643;DHT22;33930;-34.276;150.954;2022-12-07T15:42:46;20.20;99.90
44643;DHT22;33930;-34.276;150.954;2022-12-07T15:45:14;20.40;99.90
44643;DHT22;33930;-34.276;150.954;2022-12-07T15:47:42;20.40;99.90
44643;DHT22;33930;-34.276;150.954;2022-12-07T15:50:15;20.40;99.90
44643;DHT22;33930;-34.276;150.954;2022-12-07T15:52:43;20.30;99.90
44643;DHT22;33930;-34.276;150.954;2022-12-07T15:55:10;20.20;99.90
44643;DHT22;33930;-34.276;150.954;2022-12-07T15:57:38;20.40;99.90
44643;DHT22;33930;-34.276;150.954;2022-12-07T16:00:08;20.30;99.90
44643;DHT22;33930;-34.276;150.954;2022-12-07T16:02:36;20.20;99.90
44643;DHT22;33930;-34.276;150.954;2022-12-07T16:05:04;20.40;99.90
44643;DHT22;33930;-34.276;150.954;2022-12-07T16:07:31;20.30;99.90
44643;DHT22;33930;-34.276;150.954;2022-12-07T16:09:58;20.20;99.90
44643;DHT22;33930;-34.276;150.954;2022-12-07T16:12:26;20.20;99.90
44643;DHT22;33930;-34.276;150.954;2022-12-07T16:14:53;20.20;99.90
44643;DHT22;33930;-34.276;150.954;2022-12-07T16:17:20;20.20;99.90
44643;DHT22;33930;-34.276;150.954;2022-12-07T16:19:48;20.10;99.90
44643;DHT22;33930;-34.276;150.954;2022-12-07T16:22:15;19.90;99.90
44643;DHT22;33930;-34.276;150.954;2022-12-07T16:24:42;19.80;99.90
44643;DHT22;33930;-34.276;150.954;2022-12-07T16:27:10;19.70;99.90
44643;DHT22;33930;-34.276;150.954;2022-12-07T16:29:37;19.60;99.90
44643;DHT22;33930;-34.276;150.954;2022-12-07T16:32:04;19.50;99.90
44643;DHT22;33930;-34.276;150.954;2022-12-07T16:34:32;19.50;99.90
44643;DHT22;33930;-34.276;150.954;2022-12-07T16:36:59;19.30;99.90
44643;DHT22;33930;-34.276;150.954;2022-12-07T16:39:26;19.20;99.90
44643;DHT22;33930;-34.276;150.954;2022-12-07T16:41:54;19.20;99.90
44643;DHT22;33930;-34.276;150.954;2022-12-07T16:44:21;19.10;99.90
44643;DHT22;33930;-34.276;150.954;2022-12-07T16:46:48;19.10;99.90
44643;DHT22;33930;-34.276;150.954;2022-12-07T16:49:16;19.00;99.90
44643;DHT22;33930;-34.276;150.954;2022-12-07T16:51:44;18.90;99.90
44643;DHT22;33930;-34.276;150.954;2022-12-07T16:54:13;18.80;99.90
44643;DHT22;33930;-34.276;150.954;2022-12-07T16:56:40;18.70;99.90
44643;DHT22;33930;-34.276;150.954;2022-12-07T16:59:08;18.70;99.90
44643;DHT22;33930;-34.276;150.954;2022-12-07T17:01:35;18.70;99.90
44643;DHT22;33930;-34.276;150.954;2022-12-07T17:04:03;18.60;99.90
44643;DHT22;33930;-34.276;150.954;2022-12-07T17:06:31;18.50;99.90
44643;DHT22;33930;-34.276;150.954;2022-12-07T17:08:58;18.50;99.90
44643;DHT22;33930;-34.276;150.954;2022-12-07T17:11:28;18.50;99.90
44643;DHT22;33930;-34.276;150.954;2022-12-07T17:13:57;18.40;99.90
44643;DHT22;33930;-34.276;150.954;2022-12-07T17:16:43;18.40;99.90
44643;DHT22;33930;-34.276;150.954;2022-12-07T17:19:13;18.40;99.90
44643;DHT22;33930;-34.276;150.954;2022-12-07T17:21:41;18.20;99.90
44643;DHT22;33930;-34.276;150.954;2022-12-07T17:24:12;18.10;99.90
44643;DHT22;33930;-34.276;150.954;2022-12-07T17:26:39;18.10;99.90